Time;durP1;ratioP1;P1;durP2;ratioP2;P2;SDS_P1;SDS_P2;PMS_P1;PMS_P2;Temp;Humidity;BMP_temperature;BMP_pressure;BME280_temperature;BME280_humidity;BME280_pressure;Samples;Min_cycle;Max_cycle;Signal;HPM_P1;HPM_P2
2022/05/02 00:00:07;;;;;;;;;;;17.70;82.40;;;;;;4590671;19;19915;-19
2022/05/02 00:01:58;;;;;;;;;;;17.70;82.30;;;;;;4589571;19;19932;-19
2022/05/02 00:03:29;;;;;;;;;;;17.70;82.30;;;;;;4590342;19;19911;-18
2022/05/02 00:04:59;;;;;;;;;;;17.80;82.20;;;;;;4592719;19;19919;-19
2022/05/02 00:06:31;;;;;;;;;;;17.70;82.20;;;;;;4592604;19;19922;-19
2022/05/02 00:08:01;;;;;;;;;;;17.70;82.10;;;;;;4592615;19;20271;-19
2022/05/02 00:09:32;;;;;;;;;;;17.70;82.10;;;;;;4593193;19;19911;-19
2022/05/02 00:11:03;;;;;;;;;;;17.70;82.00;;;;;;4592611;19;19918;-20
2022/05/02 00:12:34;;;;;;;;;;;17.70;82.00;;;;;;4592677;19;19911;-19
2022/05/02 00:14:05;;;;;;;;;;;17.70;81.90;;;;;;4592462;19;20361;-20
2022/05/02 00:15:37;;;;;;;;;;;17.70;81.90;;;;;;4591329;19;19914;-19
2022/05/02 00:17:08;;;;;;;;;;;17.70;81.90;;;;;;4590572;19;19950;-19
2022/05/02 00:18:39;;;;;;;;;;;17.70;81.80;;;;;;4592538;19;19934;-20
2022/05/02 00:20:10;;;;;;;;;;;17.70;81.80;;;;;;4591646;19;19910;-19
2022/05/02 00:21:41;;;;;;;;;;;17.70;81.70;;;;;;4592216;19;20006;-19
2022/05/02 00:23:12;;;;;;;;;;;17.70;81.70;;;;;;4593366;19;19911;-19
2022/05/02 00:24:44;;;;;;;;;;;17.70;81.70;;;;;;4592364;19;19971;-20
2022/05/02 00:26:15;;;;;;;;;;;17.70;81.70;;;;;;4592426;19;20340;-19
2022/05/02 00:27:46;;;;;;;;;;;17.70;81.70;;;;;;4592485;19;19919;-19
2022/05/02 00:29:17;;;;;;;;;;;17.70;81.70;;;;;;4593131;19;20365;-19
2022/05/02 00:30:48;;;;;;;;;;;17.70;81.80;;;;;;4592092;19;20234;-19
2022/05/02 00:32:19;;;;;;;;;;;17.70;81.80;;;;;;4592392;19;19926;-19
2022/05/02 00:33:49;;;;;;;;;;;17.60;81.80;;;;;;4591771;19;19919;-19
2022/05/02 00:35:21;;;;;;;;;;;17.60;81.90;;;;;;4592152;19;19918;-19
2022/05/02 00:36:52;;;;;;;;;;;17.60;81.80;;;;;;4591144;19;19927;-19
2022/05/02 00:38:22;;;;;;;;;;;17.60;81.80;;;;;;4591587;19;19918;-20
2022/05/02 00:39:53;;;;;;;;;;;17.60;81.70;;;;;;4591111;19;20325;-20
2022/05/02 00:41:24;;;;;;;;;;;17.60;81.70;;;;;;4590384;19;19918;-19
2022/05/02 00:42:55;;;;;;;;;;;17.60;81.70;;;;;;4591088;19;19921;-20
2022/05/02 00:44:26;;;;;;;;;;;17.60;81.60;;;;;;4591666;19;19922;-19
2022/05/02 00:45:57;;;;;;;;;;;17.60;81.50;;;;;;4592934;19;20465;-19
2022/05/02 00:47:28;;;;;;;;;;;17.60;81.50;;;;;;4592011;19;19919;-20
2022/05/02 00:49:00;;;;;;;;;;;17.60;81.50;;;;;;4591799;19;19922;-19
2022/05/02 00:50:32;;;;;;;;;;;17.60;81.50;;;;;;4593098;19;20019;-19
2022/05/02 00:52:04;;;;;;;;;;;17.60;81.40;;;;;;4591832;19;19918;-19
2022/05/02 00:53:34;;;;;;;;;;;17.60;81.40;;;;;;4591843;19;19919;-19
2022/05/02 00:55:06;;;;;;;;;;;17.60;81.40;;;;;;4590605;19;20327;-20
2022/05/02 00:56:37;;;;;;;;;;;17.60;81.30;;;;;;4591585;19;19914;-19
2022/05/02 00:58:07;;;;;;;;;;;17.60;81.30;;;;;;4591860;19;19918;-19
2022/05/02 00:59:38;;;;;;;;;;;17.60;81.20;;;;;;4592045;19;19919;-18
2022/05/02 01:01:10;;;;;;;;;;;17.60;81.20;;;;;;4589989;19;19915;-18
2022/05/02 01:02:40;;;;;;;;;;;17.60;81.20;;;;;;4590592;19;19915;-20
2022/05/02 01:04:11;;;;;;;;;;;17.60;81.20;;;;;;4591560;19;19952;-19
2022/05/02 01:07:32;;;;;;;;;;;17.60;81.10;;;;;;4591020;19;19986;-19
2022/05/02 01:09:03;;;;;;;;;;;17.50;81.20;;;;;;4592468;19;20339;-19
2022/05/02 01:10:34;;;;;;;;;;;17.50;81.20;;;;;;4589775;19;19919;-19
2022/05/02 01:12:06;;;;;;;;;;;17.50;81.20;;;;;;4591236;19;19926;-19
2022/05/02 01:13:38;;;;;;;;;;;17.50;81.20;;;;;;4591596;19;19982;-19
2022/05/02 01:15:09;;;;;;;;;;;17.50;81.20;;;;;;4592382;19;19996;-19
2022/05/02 01:16:40;;;;;;;;;;;17.50;81.20;;;;;;4590776;19;19919;-19
2022/05/02 01:18:11;;;;;;;;;;;17.50;81.10;;;;;;4590344;19;20248;-19
2022/05/02 01:19:42;;;;;;;;;;;17.50;81.00;;;;;;4591538;19;19978;-19
2022/05/02 01:21:17;;;;;;;;;;;17.50;80.90;;;;;;4589486;19;19938;-19
2022/05/02 01:22:48;;;;;;;;;;;17.40;80.90;;;;;;4591205;19;19918;-18
2022/05/02 01:24:19;;;;;;;;;;;17.40;80.90;;;;;;4591689;19;19958;-19
2022/05/02 01:25:50;;;;;;;;;;;17.40;80.80;;;;;;4591401;19;19918;-18
2022/05/02 01:27:21;;;;;;;;;;;17.40;80.70;;;;;;4589953;19;19926;-20
2022/05/02 01:28:52;;;;;;;;;;;17.40;80.60;;;;;;4588632;19;19922;-20
2022/05/02 01:30:23;;;;;;;;;;;17.40;80.60;;;;;;4589551;19;19941;-19
2022/05/02 01:31:54;;;;;;;;;;;17.40;80.50;;;;;;4591254;19;19915;-18
2022/05/02 01:33:25;;;;;;;;;;;17.40;80.40;;;;;;4588573;19;19915;-20
2022/05/02 01:34:56;;;;;;;;;;;17.40;80.30;;;;;;4590137;19;19918;-20
2022/05/02 01:36:28;;;;;;;;;;;17.50;80.20;;;;;;4590934;19;20253;-18
2022/05/02 01:37:59;;;;;;;;;;;17.50;80.10;;;;;;4590788;19;19978;-19
2022/05/02 01:39:30;;;;;;;;;;;17.50;80.00;;;;;;4590261;19;20242;-19
2022/05/02 01:41:01;;;;;;;;;;;17.50;80.00;;;;;;4587900;19;19918;-18
2022/05/02 01:42:33;;;;;;;;;;;17.50;79.90;;;;;;4590438;19;19919;-18
2022/05/02 01:44:05;;;;;;;;;;;17.40;80.40;;;;;;4590765;19;20263;-18
2022/05/02 01:45:36;;;;;;;;;;;17.50;79.90;;;;;;4590935;19;19919;-19
2022/05/02 01:47:07;;;;;;;;;;;17.40;79.90;;;;;;4590696;19;19923;-19
2022/05/02 01:48:38;;;;;;;;;;;17.50;80.00;;;;;;4590317;19;19974;-19
2022/05/02 01:50:09;;;;;;;;;;;17.40;80.00;;;;;;4589347;19;19965;-18
2022/05/02 01:51:40;;;;;;;;;;;17.40;80.00;;;;;;4590717;19;19922;-19
2022/05/02 01:53:10;;;;;;;;;;;17.50;80.00;;;;;;4591164;19;19926;-18
2022/05/02 01:54:42;;;;;;;;;;;17.50;79.90;;;;;;4591330;19;19927;-20
2022/05/02 01:56:13;;;;;;;;;;;17.50;79.90;;;;;;4590844;19;19947;-19
2022/05/02 01:57:44;;;;;;;;;;;17.50;79.90;;;;;;4590677;19;19915;-19
2022/05/02 01:59:15;;;;;;;;;;;17.50;79.80;;;;;;4590906;19;19936;-19
2022/05/02 02:00:45;;;;;;;;;;;17.50;79.90;;;;;;4590073;19;20349;-18
2022/05/02 02:02:16;;;;;;;;;;;17.40;79.80;;;;;;4591024;19;19925;-18
2022/05/02 02:03:47;;;;;;;;;;;17.40;79.90;;;;;;4591337;19;19977;-19
2022/05/02 02:07:08;;;;;;;;;;;17.40;79.90;;;;;;4590912;19;19918;-18
2022/05/02 02:08:39;;;;;;;;;;;17.50;80.00;;;;;;4590680;19;19923;-19
2022/05/02 02:10:10;;;;;;;;;;;17.50;80.10;;;;;;4590466;19;19926;-20
2022/05/02 02:11:41;;;;;;;;;;;17.50;80.10;;;;;;4589326;19;20329;-19
2022/05/02 02:13:12;;;;;;;;;;;17.40;80.00;;;;;;4589789;19;19919;-19
2022/05/02 02:14:43;;;;;;;;;;;17.40;80.00;;;;;;4590212;19;19923;-19
2022/05/02 02:16:14;;;;;;;;;;;17.40;79.90;;;;;;4590191;19;19922;-19
2022/05/02 02:17:45;;;;;;;;;;;17.40;79.90;;;;;;4590434;19;19911;-19
2022/05/02 02:19:16;;;;;;;;;;;17.40;79.90;;;;;;4591151;19;19923;-19
2022/05/02 02:20:48;;;;;;;;;;;17.50;80.00;;;;;;4594277;19;19910;-19
2022/05/02 02:22:19;;;;;;;;;;;17.40;79.90;;;;;;4595752;19;19914;-18
2022/05/02 02:23:49;;;;;;;;;;;17.40;79.80;;;;;;4595909;19;19948;-18
2022/05/02 02:25:20;;;;;;;;;;;17.40;79.90;;;;;;4595468;19;19914;-17
2022/05/02 02:26:51;;;;;;;;;;;17.40;79.80;;;;;;4594342;19;20269;-19
2022/05/02 02:28:22;;;;;;;;;;;17.50;79.70;;;;;;4594103;19;19922;-19
2022/05/02 02:29:53;;;;;;;;;;;17.60;79.60;;;;;;4594482;19;19919;-20
2022/05/02 02:31:24;;;;;;;;;;;17.70;79.40;;;;;;4594265;19;20349;-20
2022/05/02 02:32:56;;;;;;;;;;;17.80;79.20;;;;;;4594891;19;19923;-18
2022/05/02 02:34:27;;;;;;;;;;;17.90;78.90;;;;;;4595321;19;20376;-18
2022/05/02 02:35:59;;;;;;;;;;;18.00;78.60;;;;;;4595035;19;19918;-19
2022/05/02 02:37:30;;;;;;;;;;;18.10;78.30;;;;;;4595111;19;19982;-19
2022/05/02 02:39:01;;;;;;;;;;;18.10;78.00;;;;;;4595059;19;20283;-19
2022/05/02 02:40:32;;;;;;;;;;;18.20;77.70;;;;;;4594733;19;19919;-19
2022/05/02 02:42:02;;;;;;;;;;;18.30;77.70;;;;;;4594685;19;19919;-19
2022/05/02 02:43:33;;;;;;;;;;;18.30;77.40;;;;;;4594928;19;19915;-18
2022/05/02 02:45:05;;;;;;;;;;;18.40;77.20;;;;;;4595113;19;20300;-18
2022/05/02 02:46:36;;;;;;;;;;;18.40;77.00;;;;;;4594678;19;19915;-18
2022/05/02 02:48:07;;;;;;;;;;;18.50;76.80;;;;;;4593809;19;19910;-18
2022/05/02 02:49:38;;;;;;;;;;;18.50;76.70;;;;;;4594702;19;19911;-19
2022/05/02 02:51:09;;;;;;;;;;;18.60;76.60;;;;;;4595372;19;19935;-17
2022/05/02 02:52:40;;;;;;;;;;;18.60;76.40;;;;;;4594666;19;19915;-16
2022/05/02 02:54:12;;;;;;;;;;;18.70;76.30;;;;;;4593697;19;19915;-17
2022/05/02 02:55:43;;;;;;;;;;;18.70;76.20;;;;;;4594797;19;20322;-18
2022/05/02 02:57:14;;;;;;;;;;;18.80;76.10;;;;;;4594796;19;19922;-19
2022/05/02 02:58:45;;;;;;;;;;;18.80;76.00;;;;;;4594425;19;19910;-21
2022/05/02 03:00:16;;;;;;;;;;;18.90;76.00;;;;;;4593404;19;20348;-18
2022/05/02 03:01:47;;;;;;;;;;;18.90;75.90;;;;;;4593827;19;19925;-18
2022/05/02 03:03:18;;;;;;;;;;;18.90;75.70;;;;;;4593455;19;19907;-19
2022/05/02 03:06:39;;;;;;;;;;;18.90;75.60;;;;;;4593360;19;19919;-18
2022/05/02 03:08:10;;;;;;;;;;;18.90;75.60;;;;;;4592018;19;19915;-19
2022/05/02 03:09:41;;;;;;;;;;;18.90;75.60;;;;;;4594061;19;20325;-19
2022/05/02 03:11:12;;;;;;;;;;;18.90;75.70;;;;;;4594150;19;19917;-19
2022/05/02 03:12:43;;;;;;;;;;;18.90;75.70;;;;;;4593325;19;19915;-19
2022/05/02 03:14:14;;;;;;;;;;;19.00;75.80;;;;;;4593839;19;19995;-19
2022/05/02 03:15:45;;;;;;;;;;;19.00;75.90;;;;;;4593180;19;19923;-20
2022/05/02 03:17:16;;;;;;;;;;;18.90;75.90;;;;;;4593508;19;19941;-18
2022/05/02 03:18:46;;;;;;;;;;;19.00;75.90;;;;;;4593004;19;19931;-19
2022/05/02 03:20:17;;;;;;;;;;;18.90;76.00;;;;;;4594605;19;19910;-19
2022/05/02 03:21:48;;;;;;;;;;;18.90;76.00;;;;;;4594446;19;19919;-21
2022/05/02 03:23:20;;;;;;;;;;;18.90;76.00;;;;;;4593261;19;19918;-19
2022/05/02 03:24:51;;;;;;;;;;;18.90;76.00;;;;;;4591541;19;19918;-19
2022/05/02 03:26:21;;;;;;;;;;;18.90;76.00;;;;;;4592295;19;20326;-18
2022/05/02 03:27:52;;;;;;;;;;;18.80;76.00;;;;;;4592170;19;20013;-19
2022/05/02 03:29:23;;;;;;;;;;;18.80;76.10;;;;;;4591801;19;19915;-18
2022/05/02 03:30:54;;;;;;;;;;;18.80;76.10;;;;;;4594344;19;19926;-19
2022/05/02 03:32:25;;;;;;;;;;;18.80;76.20;;;;;;4594109;19;19953;-19
2022/05/02 03:33:56;;;;;;;;;;;18.80;76.30;;;;;;4592239;19;20390;-19
2022/05/02 03:35:28;;;;;;;;;;;18.70;76.30;;;;;;4592719;19;19933;-19
2022/05/02 03:36:58;;;;;;;;;;;18.70;76.40;;;;;;4593134;19;19927;-19
2022/05/02 03:38:29;;;;;;;;;;;18.70;76.40;;;;;;4593757;19;19914;-21
2022/05/02 03:40:00;;;;;;;;;;;18.70;76.50;;;;;;4593454;19;19978;-19
2022/05/02 03:41:31;;;;;;;;;;;18.70;76.50;;;;;;4590627;19;19914;-19
2022/05/02 03:43:02;;;;;;;;;;;18.60;76.50;;;;;;4592914;19;20336;-18
2022/05/02 03:44:33;;;;;;;;;;;18.60;76.50;;;;;;4590344;19;19950;-19
2022/05/02 03:46:04;;;;;;;;;;;18.60;76.60;;;;;;4591513;19;19979;-18
2022/05/02 03:47:35;;;;;;;;;;;18.60;77.30;;;;;;4592011;19;19914;-19
2022/05/02 03:49:06;;;;;;;;;;;18.60;76.80;;;;;;4591522;19;19990;-19
2022/05/02 03:50:37;;;;;;;;;;;18.50;76.90;;;;;;4593772;19;19926;-18
2022/05/02 03:52:08;;;;;;;;;;;18.50;77.10;;;;;;4594059;19;19986;-19
2022/05/02 03:53:39;;;;;;;;;;;18.50;77.20;;;;;;4593378;19;19926;-18
2022/05/02 03:55:10;;;;;;;;;;;18.50;77.30;;;;;;4590595;19;20357;-18
2022/05/02 03:56:41;;;;;;;;;;;18.50;77.40;;;;;;4590085;19;19922;-18
2022/05/02 03:58:12;;;;;;;;;;;18.40;77.40;;;;;;4592138;19;19931;-19
2022/05/02 03:59:43;;;;;;;;;;;18.40;77.50;;;;;;4592316;19;19934;-19
2022/05/02 04:01:13;;;;;;;;;;;18.40;77.50;;;;;;4589899;19;19923;-19
2022/05/02 04:02:45;;;;;;;;;;;18.40;78.10;;;;;;4591591;19;19922;-18
2022/05/02 04:04:16;;;;;;;;;;;18.40;77.70;;;;;;4593272;19;19998;-19
2022/05/02 04:05:46;;;;;;;;;;;18.40;77.80;;;;;;4592686;19;19915;-19
2022/05/02 04:07:17;;;;;;;;;;;18.40;77.90;;;;;;4592072;19;19990;-18
2022/05/02 04:08:48;;;;;;;;;;;18.40;78.00;;;;;;4590363;19;20345;-19
2022/05/02 04:10:19;;;;;;;;;;;18.40;78.10;;;;;;4591873;19;20002;-19
2022/05/02 04:11:50;;;;;;;;;;;18.40;78.20;;;;;;4592015;19;19914;-19
2022/05/02 04:13:21;;;;;;;;;;;18.40;78.30;;;;;;4591749;19;19930;-19
2022/05/02 04:14:52;;;;;;;;;;;18.30;78.40;;;;;;4590777;19;19918;-19
2022/05/02 04:16:23;;;;;;;;;;;18.30;78.50;;;;;;4590043;19;19948;-19
2022/05/02 04:17:55;;;;;;;;;;;18.40;78.70;;;;;;4593720;19;19911;-19
2022/05/02 04:19:26;;;;;;;;;;;18.30;78.80;;;;;;4593347;19;19927;-19
2022/05/02 04:20:57;;;;;;;;;;;18.30;78.90;;;;;;4592602;19;19906;-19
2022/05/02 04:22:28;;;;;;;;;;;18.30;79.10;;;;;;4591302;19;19930;-18
2022/05/02 04:23:59;;;;;;;;;;;18.20;79.30;;;;;;4592069;19;19919;-19
2022/05/02 04:25:30;;;;;;;;;;;18.20;79.50;;;;;;4592275;19;19948;-19
2022/05/02 04:27:01;;;;;;;;;;;18.10;79.80;;;;;;4591197;19;19974;-20
2022/05/02 04:28:34;;;;;;;;;;;18.20;80.10;;;;;;4588025;19;19911;-19
2022/05/02 04:30:05;;;;;;;;;;;18.10;80.20;;;;;;4590699;19;19919;-20
2022/05/02 04:31:36;;;;;;;;;;;18.10;80.30;;;;;;4589213;19;19918;-19
2022/05/02 04:33:07;;;;;;;;;;;18.10;80.30;;;;;;4592228;19;19933;-19
2022/05/02 04:34:38;;;;;;;;;;;18.20;80.40;;;;;;4591594;19;20262;-20
2022/05/02 04:36:09;;;;;;;;;;;18.20;80.40;;;;;;4591128;19;19915;-19
2022/05/02 04:37:40;;;;;;;;;;;18.10;80.40;;;;;;4590969;19;19911;-18
2022/05/02 04:39:11;;;;;;;;;;;18.10;80.30;;;;;;4591057;19;20367;-20
2022/05/02 04:40:42;;;;;;;;;;;18.20;80.50;;;;;;4590096;19;20280;-19
2022/05/02 04:42:13;;;;;;;;;;;18.10;80.50;;;;;;4591834;19;19919;-19
2022/05/02 04:43:44;;;;;;;;;;;18.20;80.70;;;;;;4592828;19;19922;-19
2022/05/02 04:45:15;;;;;;;;;;;18.10;80.60;;;;;;4592218;19;19926;-20
2022/05/02 04:46:46;;;;;;;;;;;18.20;80.80;;;;;;4590177;19;19991;-19
2022/05/02 04:48:16;;;;;;;;;;;18.20;80.90;;;;;;4591648;19;20334;-19
2022/05/02 04:49:47;;;;;;;;;;;18.10;80.90;;;;;;4591786;19;19914;-18
2022/05/02 04:51:18;;;;;;;;;;;18.20;81.00;;;;;;4588425;19;19910;-18
2022/05/02 04:52:49;;;;;;;;;;;18.20;81.10;;;;;;4590636;19;19918;-19
2022/05/02 04:54:20;;;;;;;;;;;18.20;81.40;;;;;;4590486;19;19984;-19
2022/05/02 04:55:51;;;;;;;;;;;18.20;81.40;;;;;;4591790;19;20321;-19
2022/05/02 04:57:22;;;;;;;;;;;18.20;81.70;;;;;;4591594;19;19933;-19
2022/05/02 04:58:53;;;;;;;;;;;18.10;81.70;;;;;;4592280;19;19978;-19
2022/05/02 05:00:24;;;;;;;;;;;18.10;81.80;;;;;;4591622;19;20246;-21
2022/05/02 05:01:56;;;;;;;;;;;18.10;82.00;;;;;;4591313;19;20330;-19
2022/05/02 05:03:27;;;;;;;;;;;18.10;82.20;;;;;;4589627;19;19919;-19
2022/05/02 05:04:58;;;;;;;;;;;18.10;82.30;;;;;;4589322;19;19919;-19
2022/05/02 05:06:29;;;;;;;;;;;18.10;82.40;;;;;;4589097;19;20357;-19
2022/05/02 05:08:00;;;;;;;;;;;18.10;82.50;;;;;;4589452;19;19915;-18
2022/05/02 05:09:31;;;;;;;;;;;18.10;82.60;;;;;;4590344;19;19919;-18
2022/05/02 05:11:23;;;;;;;;;;;18.10;82.60;;;;;;4592538;19;19925;-19
2022/05/02 05:12:57;;;;;;;;;;;18.10;82.60;;;;;;4590334;19;19914;-19
2022/05/02 05:16:37;;;;;;;;;;;18.10;83.50;;;;;;4589051;19;20350;-20
2022/05/02 05:18:22;;;;;;;;;;;18.10;83.00;;;;;;4588721;19;19919;-19
2022/05/02 05:20:10;;;;;;;;;;;18.00;83.10;;;;;;4587348;19;19922;-20
2022/05/02 05:22:05;;;;;;;;;;;18.10;83.20;;;;;;4588646;19;19922;-18
2022/05/02 05:23:54;;;;;;;;;;;18.00;83.30;;;;;;4587627;19;19926;-19
2022/05/02 05:25:28;;;;;;;;;;;18.00;83.50;;;;;;4590584;19;20332;-19
2022/05/02 05:27:08;;;;;;;;;;;18.00;83.50;;;;;;4588151;19;20035;-18
2022/05/02 05:28:48;;;;;;;;;;;18.00;83.70;;;;;;4589848;19;19966;-19
2022/05/02 05:30:20;;;;;;;;;;;18.00;83.70;;;;;;4590051;19;20320;-19
2022/05/02 05:31:52;;;;;;;;;;;18.00;83.70;;;;;;4589465;19;19922;-17
2022/05/02 05:33:25;;;;;;;;;;;18.00;83.80;;;;;;4590704;19;19919;-19
2022/05/02 05:34:58;;;;;;;;;;;18.00;83.80;;;;;;4590755;19;19915;-18
2022/05/02 05:36:30;;;;;;;;;;;18.00;83.80;;;;;;4590912;19;19914;-18
2022/05/02 05:38:01;;;;;;;;;;;18.00;83.90;;;;;;4590921;19;19974;-18
2022/05/02 05:39:36;;;;;;;;;;;18.00;84.00;;;;;;4590254;19;19918;-19
2022/05/02 05:41:14;;;;;;;;;;;17.90;84.00;;;;;;4588010;19;19923;-19
2022/05/02 05:42:51;;;;;;;;;;;17.90;84.20;;;;;;4589695;19;19919;-20
2022/05/02 05:44:29;;;;;;;;;;;17.90;84.10;;;;;;4589554;19;19948;-19
2022/05/02 05:46:12;;;;;;;;;;;17.80;85.00;;;;;;4588031;19;20334;-20
2022/05/02 05:48:02;;;;;;;;;;;17.80;84.60;;;;;;4588441;19;19974;-18
2022/05/02 05:49:33;;;;;;;;;;;17.80;84.70;;;;;;4589846;19;20310;-18
2022/05/02 05:51:22;;;;;;;;;;;17.90;84.70;;;;;;4588871;19;19915;-18
2022/05/02 05:53:07;;;;;;;;;;;17.90;84.70;;;;;;4589467;19;19925;-18
2022/05/02 05:54:49;;;;;;;;;;;17.90;84.80;;;;;;4587364;19;19931;-19
2022/05/02 05:56:39;;;;;;;;;;;17.90;84.80;;;;;;4586539;19;19926;-19
2022/05/02 05:58:31;;;;;;;;;;;17.90;84.70;;;;;;4589410;19;19941;-20
2022/05/02 06:00:06;;;;;;;;;;;17.90;84.80;;;;;;4589500;19;19915;-19
2022/05/02 06:01:40;;;;;;;;;;;17.90;84.80;;;;;;4587855;19;19915;-18
2022/05/02 06:03:17;;;;;;;;;;;17.90;84.90;;;;;;4588028;19;19919;-19
2022/05/02 06:04:48;;;;;;;;;;;17.90;85.00;;;;;;4588576;19;20245;-19
2022/05/02 06:06:19;;;;;;;;;;;17.80;85.10;;;;;;4587331;19;19943;-19
2022/05/02 06:07:50;;;;;;;;;;;17.90;85.20;;;;;;4588032;19;19923;-19
2022/05/02 06:09:21;;;;;;;;;;;17.90;85.20;;;;;;4589715;19;19937;-19
2022/05/02 06:10:52;;;;;;;;;;;17.90;85.30;;;;;;4591205;19;20347;-19
2022/05/02 06:12:23;;;;;;;;;;;17.90;85.30;;;;;;4589405;19;19911;-18
2022/05/02 06:13:56;;;;;;;;;;;17.90;85.30;;;;;;4589191;19;19943;-19
2022/05/02 06:19:08;;;;;;;;;;;18.10;84.80;;;;;;4589612;19;19982;-18
2022/05/02 06:20:39;;;;;;;;;;;18.10;84.40;;;;;;4588964;19;19918;-19
2022/05/02 06:22:10;;;;;;;;;;;18.30;84.10;;;;;;4589634;19;20348;-19
2022/05/02 06:23:42;;;;;;;;;;;18.30;83.90;;;;;;4589653;19;19990;-18
2022/05/02 06:25:14;;;;;;;;;;;18.40;83.80;;;;;;4589416;19;19922;-19
2022/05/02 06:26:45;;;;;;;;;;;18.50;83.60;;;;;;4588731;19;19911;-19
2022/05/02 06:28:16;;;;;;;;;;;18.50;83.40;;;;;;4588073;19;19984;-19
2022/05/02 06:29:47;;;;;;;;;;;18.50;83.30;;;;;;4589410;19;19915;-19
2022/05/02 06:31:19;;;;;;;;;;;18.50;83.40;;;;;;4589846;19;19974;-19
2022/05/02 06:32:50;;;;;;;;;;;18.50;83.30;;;;;;4589062;19;20004;-19
2022/05/02 06:34:27;;;;;;;;;;;18.50;83.20;;;;;;4589130;19;19926;-19
2022/05/02 06:36:03;;;;;;;;;;;18.60;83.20;;;;;;4589200;19;20254;-19
2022/05/02 06:37:36;;;;;;;;;;;18.60;83.10;;;;;;4587246;19;19949;-19
2022/05/02 06:39:30;;;;;;;;;;;18.60;83.10;;;;;;4589144;19;20282;-19
2022/05/02 06:41:00;;;;;;;;;;;18.60;83.20;;;;;;4587788;19;19915;-19
2022/05/02 06:42:52;;;;;;;;;;;18.60;83.30;;;;;;4588257;19;19921;-19
2022/05/02 06:44:26;;;;;;;;;;;18.60;83.10;;;;;;4587298;19;20468;-18
2022/05/02 06:46:06;;;;;;;;;;;18.70;83.00;;;;;;4587842;19;19921;-18
2022/05/02 06:47:45;;;;;;;;;;;18.70;83.40;;;;;;4587731;19;20317;-19
2022/05/02 06:49:16;;;;;;;;;;;18.80;82.70;;;;;;4587764;19;19914;-18
2022/05/02 06:50:50;;;;;;;;;;;18.80;82.50;;;;;;4588134;19;19945;-18
2022/05/02 06:52:23;;;;;;;;;;;18.80;82.50;;;;;;4588735;19;19919;-18
2022/05/02 06:54:03;;;;;;;;;;;18.90;82.50;;;;;;4588578;19;19929;-19
2022/05/02 06:55:39;;;;;;;;;;;18.90;82.40;;;;;;4588155;19;20245;-19
2022/05/02 06:57:29;;;;;;;;;;;18.90;82.40;;;;;;4588609;19;20005;-20
2022/05/02 06:59:06;;;;;;;;;;;18.90;82.30;;;;;;4588120;19;19922;-19
2022/05/02 07:00:39;;;;;;;;;;;18.90;82.20;;;;;;4586995;19;19911;-18
2022/05/02 07:02:12;;;;;;;;;;;18.90;82.10;;;;;;4587784;19;20389;-19
2022/05/02 07:04:02;;;;;;;;;;;18.90;82.10;;;;;;4587962;19;19919;-18
2022/05/02 07:05:36;;;;;;;;;;;18.90;81.90;;;;;;4589691;19;19915;-19
2022/05/02 07:07:16;;;;;;;;;;;19.00;81.90;;;;;;4592492;19;19915;-19
2022/05/02 07:08:47;;;;;;;;;;;19.00;81.80;;;;;;4592289;19;19919;-19
2022/05/02 07:10:26;;;;;;;;;;;19.00;81.80;;;;;;4592673;19;20006;-20
2022/05/02 07:11:57;;;;;;;;;;;19.00;81.80;;;;;;4591863;19;20348;-19
2022/05/02 07:13:31;;;;;;;;;;;18.90;81.60;;;;;;4592356;19;19982;-18
2022/05/02 07:15:02;;;;;;;;;;;19.00;81.60;;;;;;4591915;19;20322;-20
2022/05/02 07:16:35;;;;;;;;;;;19.00;81.50;;;;;;4590456;19;19923;-19
2022/05/02 07:18:06;;;;;;;;;;;19.00;81.40;;;;;;4592008;19;20279;-18
2022/05/02 07:19:48;;;;;;;;;;;19.00;81.40;;;;;;4595398;19;19911;-18
2022/05/02 07:21:28;;;;;;;;;;;19.00;81.30;;;;;;4594974;19;19992;-19
2022/05/02 07:23:02;;;;;;;;;;;19.00;81.20;;;;;;4595782;19;19922;-19
2022/05/02 07:24:46;;;;;;;;;;;19.00;81.20;;;;;;4595117;19;19933;-19
2022/05/02 07:26:18;;;;;;;;;;;19.00;81.20;;;;;;4593751;19;19938;-18
2022/05/02 07:28:04;;;;;;;;;;;19.00;81.00;;;;;;4590123;19;20001;-17
2022/05/02 07:29:35;;;;;;;;;;;19.00;80.90;;;;;;4593126;19;19926;-19
2022/05/02 07:31:07;;;;;;;;;;;19.10;80.80;;;;;;4591460;19;19915;-19
2022/05/02 07:32:38;;;;;;;;;;;19.10;80.60;;;;;;4593609;19;19919;-19
2022/05/02 07:34:11;;;;;;;2.60;2.35;;;19.10;80.00;;;;;;4595501;19;19919;-20
2022/05/02 07:35:42;;;;;;;3.42;2.60;;;17.20;80.00;;;;;;4593410;19;20010;-19
2022/05/02 07:37:13;;;;;;;;;;;15.90;82.80;;;;;;4591489;19;20329;-20
2022/05/02 07:38:44;;;;;;;;;;;15.20;85.10;;;;;;4591132;19;19951;-18
2022/05/02 07:40:19;;;;;;;;;;;14.70;87.00;;;;;;4591621;19;20276;-18
2022/05/02 07:41:50;;;;;;;;;;;14.50;87.50;;;;;;4591881;19;20002;-18
2022/05/02 07:43:21;;;;;;;;;;;14.30;87.50;;;;;;4592232;19;19919;-18
2022/05/02 07:44:52;;;;;;;;;;;14.20;87.80;;;;;;4591985;19;19978;-19
2022/05/02 07:46:31;;;;;;;;;;;14.10;87.10;;;;;;4592001;19;19919;-21
2022/05/02 07:48:03;;;;;;;3.20;2.50;;;14.10;88.50;;;;;;4593271;19;20240;-18
2022/05/02 07:49:34;;;;;;;3.70;2.50;;;14.00;87.60;;;;;;4591582;19;20009;-19
2022/05/02 07:51:05;;;;;;;4.38;2.75;;;14.00;87.70;;;;;;4591759;19;20452;-18
2022/05/02 07:52:40;;;;;;;3.47;2.70;;;14.00;88.30;;;;;;4591174;19;20096;-18
2022/05/02 07:54:15;;;;;;;4.67;3.70;;;14.00;90.00;;;;;;4594128;19;20058;-18
2022/05/02 07:55:46;;;;;;;4.07;2.70;;;14.00;89.10;;;;;;4593057;19;20449;-18
2022/05/02 07:57:19;;;;;;;3.58;2.55;;;14.00;87.80;;;;;;4589539;19;20007;-18
2022/05/02 07:58:52;;;;;;;3.57;2.73;;;14.00;87.20;;;;;;4592521;19;20347;-19
2022/05/02 08:00:24;;;;;;;3.73;2.40;;;14.00;86.50;;;;;;4593115;19;20453;-20
2022/05/02 08:01:56;;;;;;;3.60;3.03;;;14.00;86.70;;;;;;4592340;19;20074;-17
2022/05/02 08:03:27;;;;;;;;;;;14.00;87.90;;;;;;4595192;19;20441;-19
2022/05/02 08:05:00;;;;;;;3.57;2.53;;;14.00;87.50;;;;;;4591399;19;19949;-17
2022/05/02 08:06:37;;;;;;;2.77;2.17;;;14.00;86.70;;;;;;4589766;19;20539;-19
2022/05/02 08:08:15;;;;;;;3.15;2.20;;;14.00;86.10;;;;;;4591996;19;20002;-20
2022/05/02 08:09:57;;;;;;;;;;;14.00;86.20;;;;;;4592186;19;20513;-19
2022/05/02 08:11:51;;;;;;;;;;;14.00;86.20;;;;;;4592203;19;19933;-19
2022/05/02 08:13:22;;;;;;;;;;;14.10;87.40;;;;;;4590593;19;19922;-18
2022/05/02 08:15:02;;;;;;;;;;;14.10;86.90;;;;;;4590679;19;20373;-17
2022/05/02 08:16:35;;;;;;;;;;;14.10;87.20;;;;;;4589137;19;19923;-18
2022/05/02 08:18:24;;;;;;;;;;;14.10;87.00;;;;;;4589668;19;19942;-19
2022/05/02 08:20:01;;;;;;;;;;;14.10;86.80;;;;;;4590191;19;19930;-19
2022/05/02 08:21:32;;;;;;;;;;;14.10;86.60;;;;;;4589621;19;19918;-19
2022/05/02 08:27:16;;;;;;;;;;;14.10;85.90;;;;;;4589632;19;19935;-19
2022/05/02 08:28:47;;;;;;;;;;;14.10;85.90;;;;;;4590620;19;19923;-18
2022/05/02 08:30:24;;;;;;;;;;;14.10;86.60;;;;;;4590439;19;20353;-18
2022/05/02 08:32:06;;;;;;;;;;;14.10;85.90;;;;;;4590071;19;19931;-19
2022/05/02 08:33:39;;;;;;;;;;;14.10;85.90;;;;;;4590140;19;19922;-19
2022/05/02 08:35:14;;;;;;;;;;;14.10;86.60;;;;;;4590686;19;19915;-19
2022/05/02 08:37:08;;;;;;;;;;;14.10;86.60;;;;;;4591924;19;19921;-21
2022/05/02 08:38:56;;;;;;;;;;;14.10;86.70;;;;;;4589854;19;19922;-19
2022/05/02 08:40:28;;;;;;;;;;;14.10;86.70;;;;;;4589584;19;19990;-19
2022/05/02 08:42:13;;;;;;;;;;;14.00;86.40;;;;;;4589986;19;19928;-20
2022/05/02 08:43:44;;;;;;;;;;;14.00;86.60;;;;;;4589771;19;19918;-18
2022/05/02 08:45:35;;;;;;;;;;;14.10;87.40;;;;;;4590306;19;20308;-19
2022/05/02 08:47:21;;;;;;;;;;;14.10;85.60;;;;;;4590021;19;20211;-19
2022/05/02 08:49:35;;;;;;;;;;;14.10;86.10;;;;;;4589589;19;19926;-18
2022/05/02 08:51:21;;;;;;;;;;;14.00;86.50;;;;;;4589325;19;20345;-18
2022/05/02 08:52:55;;;;;;;;;;;14.00;85.20;;;;;;4591211;19;20333;-19
2022/05/02 08:54:44;;;;;;;;;;;14.00;87.00;;;;;;4589848;19;20053;-19
2022/05/02 08:56:27;;;;;;;;;;;14.00;87.00;;;;;;4589677;19;19915;-19
2022/05/02 08:58:01;;;;;;;;;;;14.00;85.80;;;;;;4587200;19;19936;-20
2022/05/02 08:59:50;;;;;;;;;;;14.00;86.70;;;;;;4589430;19;19923;-19
2022/05/02 09:01:27;;;;;;;;;;;14.00;87.20;;;;;;4588417;19;19922;-19
2022/05/02 09:03:07;;;;;;;;;;;14.00;85.20;;;;;;4589657;19;19939;-21
2022/05/02 09:04:59;;;;;;;;;;;14.00;84.20;;;;;;4589391;19;19915;-18
2022/05/02 09:06:32;;;;;;;;;;;14.00;84.50;;;;;;4589627;19;20354;-20
2022/05/02 09:08:22;;;;;;;;;;;14.10;85.20;;;;;;4589239;19;20253;-19
2022/05/02 09:10:08;;;;;;;;;;;14.10;85.10;;;;;;4589364;19;19923;-19
2022/05/02 09:11:39;;;;;;;;;;;14.10;85.80;;;;;;4589573;19;20029;-19
2022/05/02 09:13:23;;;;;;;;;;;14.10;86.30;;;;;;4589622;19;19948;-19
2022/05/02 09:14:54;;;;;;;;;;;14.10;85.40;;;;;;4589741;19;19978;-18
2022/05/02 09:16:40;;;;;;;;;;;14.10;86.70;;;;;;4590438;19;19918;-18
2022/05/02 09:18:12;;;;;;;;;;;14.10;85.80;;;;;;4590520;19;19970;-18